Corning, California
Current Conditions -  °F | °C
As of 3:54 AM on Monday 26 Jan 2015 (Local Time) from KRBL Reporting Station
Moderate Fog Moderate Fog  
Wind Chill: 38°   Ceiling: 200
Heat Index: 38°   Visibility: 0.5mi
Dew Point: 37°   Wind: 3mph
Humidity: 97%   Direction: 320°NW
Pressure: 30.13"   Gusts: NA
Location:  39.93°N, 122.17°W
Report Text: KRBL 261154Z AUTO 32003KT 1/2SM FG VV002 03/03 A3013 RMK AO2 SLP202 T00330028 10089 20033 51010
Loading
Personal Weather Stations






























Interactive Weather Map New forecast layout! Learn more

10-Day Weather Forecast

Advertisements
Track Severe Weather on mobile